Flugplatz Neuburg-Egweil

Für EDNJ sind keine METAR/TAF Berichte vorhanden.
Es werden die Flugwettermeldungen vom Flugplatz Neuburg Airport in 7 km Entfernung angezeigt.

Bericht für ETSN

vom 03.12. um 21:20 UTC

Wind 3 kt aus 50°

Sichtweite 10 km oder mehr

Temperatur -5.0°C

Taupunkt -6.0°C

Luftfeuchtigkeit 93%

Luftdruck 998 hPa

ETSN 032120Z 05003KT 9999 M05/M06 Q0998 BLU+

Prognose für ETSN

vom 03.12. um 14:30 UTC

Zwischen 15:00 UTC und 17:00 UTC

Wind 5 kt aus 110°

Sichtweite 10 km oder mehr

keine signifikanten Wettererscheinungen

aufgebrochene Bewölkung in 2500 ft


Zwischen 15:00 UTC und 17:00 UTC zeitweise

Wind 5 kt aus 90°

Sichtweite 6000 m

keine signifikanten Wettererscheinungen

aufgebrochene Bewölkung in 2000 ft


Zwischen 17:00 und 19:00 UTC übergehend zu

Wind 4 kt aus 80°

Sichtweite 8000 m

keine signifikanten Wettererscheinungen

aufgelockert bewölkt in 2500 ft

TAF ETSN 031430Z 0315/0324 11005KT 9999 NSW BKN025 TEMPO 0315/0317 09005KT 6000 NSW BKN020 BECMG 0317/0319 08004KT 8000 NSW SCT025 BY ETGL
Impressum